createdAt,value
2022-08-12T00:14:34.724Z,45.7
2022-08-12T00:29:51.488Z,45.9
2022-08-12T00:45:02.818Z,46
2022-08-12T01:00:12.396Z,46.2
2022-08-12T01:15:22.137Z,46
2022-08-12T01:30:31.542Z,46.1
2022-08-12T01:45:47.373Z,46.2
2022-08-12T02:00:57.170Z,46.3
2022-08-12T02:16:06.787Z,46.5
2022-08-12T02:31:16.177Z,46.8
2022-08-12T02:46:25.245Z,47.2
2022-08-12T03:01:35.623Z,47.5
2022-08-12T03:16:52.623Z,47.7
2022-08-12T03:32:02.795Z,47.9
2022-08-12T03:47:17.354Z,48.1
2022-08-12T04:02:26.695Z,48.4
2022-08-12T04:17:35.577Z,48.4
2022-08-12T04:32:46.385Z,48.5
2022-08-12T04:47:55.701Z,48.6
2022-08-12T05:03:05.827Z,48.7
2022-08-12T05:18:20.893Z,48.8
2022-08-12T05:33:30.869Z,48.8
2022-08-12T05:48:40.109Z,48.8
2022-08-12T06:03:49.356Z,48.8
2022-08-12T06:19:02.792Z,48.8
2022-08-12T06:35:50.842Z,48.7
2022-08-12T06:51:03.034Z,49.7
2022-08-12T07:06:13.086Z,48.5
2022-08-12T07:21:22.420Z,48.4
2022-08-12T07:36:31.738Z,48.2
2022-08-12T07:51:40.990Z,48
2022-08-12T08:06:51.032Z,47.6
2022-08-12T08:22:03.471Z,47.2
2022-08-12T08:37:17.624Z,46.9
2022-08-12T08:52:41.493Z,46.5
2022-08-12T09:44:06.421Z,45.3
2022-08-12T10:00:48.522Z,44.6
2022-08-12T10:16:06.741Z,44.5
2022-08-12T10:31:17.285Z,44.4
2022-08-12T10:46:32.341Z,44.1
2022-08-12T11:04:50.603Z,43.6
2022-08-12T11:20:06.148Z,43.3
2022-08-12T11:35:17.803Z,43
2022-08-12T11:50:33.214Z,42.5
2022-08-12T12:05:46.257Z,41.8
2022-08-12T12:21:00.647Z,37.5
2022-08-12T12:36:31.238Z,39
2022-08-12T12:52:21.569Z,39.3
2022-08-12T13:08:02.075Z,39.6
2022-08-12T13:23:45.025Z,39.4
2022-08-12T13:38:55.743Z,39.1
2022-08-12T13:54:14.377Z,38.8
2022-08-12T14:09:29.951Z,38.9
2022-08-12T14:24:41.612Z,38
2022-08-12T14:39:51.892Z,37.4
2022-08-12T15:12:25.033Z,35.9
2022-08-12T15:28:23.814Z,35.8
2022-08-12T15:44:46.504Z,36
2022-08-12T16:00:33.976Z,35.7
2022-08-12T16:16:23.003Z,36.8
2022-08-12T16:31:35.822Z,37.8
2022-08-12T16:46:58.541Z,38.3
2022-08-12T17:02:08.786Z,38.2
2022-08-12T17:17:41.721Z,38.7
2022-08-12T17:32:53.847Z,38.8
2022-08-12T17:50:59.229Z,33.6
2022-08-12T18:06:15.768Z,36.4
2022-08-12T18:22:03.291Z,37.1
2022-08-12T18:37:42.930Z,37.5
2022-08-12T18:52:52.247Z,38.5
2022-08-12T19:08:02.769Z,40
2022-08-12T19:23:22.546Z,40.4
2022-08-12T19:38:33.481Z,40.7
2022-08-12T19:53:58.897Z,41
2022-08-12T20:09:08.146Z,41.3
2022-08-12T20:24:22.048Z,41.4
2022-08-12T20:40:05.295Z,41.1
2022-08-12T20:55:19.916Z,41.1
2022-08-12T21:10:35.970Z,41.2
2022-08-12T21:25:46.486Z,41.4
2022-08-12T21:40:56.570Z,41.7
2022-08-12T21:56:05.754Z,41.8
2022-08-12T22:11:49.524Z,42
2022-08-12T22:27:34.026Z,42.2
2022-08-12T22:42:51.846Z,42.4
2022-08-12T22:58:01.869Z,42.6
2022-08-12T23:13:14.756Z,42.9
2022-08-12T23:30:42.524Z,43.2
2022-08-12T23:46:01.690Z,43.9
